createdAt,value
2023-03-28T00:00:47.414Z,0.95
2023-03-28T00:03:14.469Z,0.70
2023-03-28T00:05:41.647Z,0.93
2023-03-28T00:08:09.004Z,0.80
2023-03-28T00:10:35.461Z,1.37
2023-03-28T00:13:01.956Z,0.82
2023-03-28T00:15:28.695Z,0.88
2023-03-28T00:17:55.261Z,0.85
2023-03-28T00:20:21.817Z,0.82
2023-03-28T00:22:49.432Z,1.20
2023-03-28T00:25:16.041Z,1.20
2023-03-28T00:27:42.492Z,0.82
2023-03-28T00:30:09.856Z,1.23
2023-03-28T00:32:39.681Z,1.13
2023-03-28T00:37:34.589Z,0.77
2023-03-28T00:40:01.672Z,1.13
2023-03-28T00:42:28.417Z,0.90
2023-03-28T00:44:58.441Z,0.60
2023-03-28T00:47:28.147Z,0.73
2023-03-28T00:50:00.240Z,1.33
2023-03-28T00:52:31.697Z,1.15
2023-03-28T00:54:59.856Z,1.40
2023-03-28T00:57:28.528Z,1.02
2023-03-28T00:59:55.499Z,1.00
2023-03-28T01:02:22.715Z,0.90
2023-03-28T01:05:00.887Z,1.10
2023-03-28T01:07:33.354Z,1.05
2023-03-28T01:10:01.423Z,0.90
2023-03-28T01:12:28.736Z,0.88
2023-03-28T01:14:56.467Z,1.10
2023-03-28T01:17:25.529Z,1.17
2023-03-28T01:19:59.111Z,0.85
2023-03-28T01:22:57.245Z,1.02
2023-03-28T01:25:31.762Z,1.00
2023-03-28T01:28:05.642Z,0.90
2023-03-28T01:31:04.601Z,0.75
2023-03-28T01:34:08.752Z,0.80
2023-03-28T01:37:01.487Z,0.60
2023-03-28T01:40:11.377Z,0.77
2023-03-28T01:42:48.760Z,0.70
2023-03-28T01:45:28.700Z,1.17
2023-03-28T01:48:12.657Z,1.25
2023-03-28T01:50:46.934Z,0.98
2023-03-28T01:53:33.288Z,1.13
2023-03-28T01:56:13.338Z,0.88
2023-03-28T01:59:02.007Z,0.80
2023-03-28T02:01:56.770Z,0.80
2023-03-28T02:04:26.008Z,1.00
2023-03-28T02:06:58.316Z,1.00
2023-03-28T02:09:32.319Z,1.05
2023-03-28T02:12:12.385Z,0.80
2023-03-28T02:15:13.742Z,0.80
2023-03-28T02:18:14.848Z,1.33
2023-03-28T02:21:01.568Z,0.95
2023-03-28T02:23:53.249Z,0.82
2023-03-28T02:26:38.746Z,1.23
2023-03-28T02:29:23.779Z,1.05
2023-03-28T02:31:57.493Z,1.10
2023-03-28T02:34:25.215Z,1.10
2023-03-28T02:37:03.665Z,0.93
2023-03-28T02:39:43.975Z,1.13
2023-03-28T02:42:37.555Z,1.05
2023-03-28T02:45:14.105Z,0.95
2023-03-28T02:48:13.463Z,1.15
2023-03-28T02:50:53.721Z,1.30
2023-03-28T02:53:32.668Z,1.30
2023-03-28T02:56:19.221Z,1.10
2023-03-28T02:59:16.954Z,1.05
2023-03-28T03:01:45.079Z,1.58
2023-03-28T03:04:17.154Z,1.40
2023-03-28T03:06:49.375Z,1.20
2023-03-28T03:09:17.760Z,1.17
2023-03-28T03:11:44.243Z,1.10
2023-03-28T03:14:12.080Z,1.20
2023-03-28T03:16:38.820Z,1.17
2023-03-28T03:19:07.549Z,1.20
2023-03-28T03:21:34.045Z,1.23
2023-03-28T03:24:00.840Z,1.48
2023-03-28T03:26:27.476Z,1.33
2023-03-28T03:29:00.925Z,1.35
2023-03-28T03:31:28.086Z,1.50
2023-03-28T03:34:14.532Z,1.70
2023-03-28T03:36:46.177Z,1.50
2023-03-28T03:39:12.750Z,1.52
2023-03-28T03:41:39.566Z,1.20
2023-03-28T03:44:06.238Z,1.17
2023-03-28T03:46:32.783Z,1.25
2023-03-28T03:48:59.379Z,1.40
2023-03-28T03:51:25.893Z,1.75
2023-03-28T03:53:54.860Z,1.20
2023-03-28T03:56:28.701Z,1.27
2023-03-28T03:58:57.465Z,1.20
2023-03-28T04:01:30.115Z,1.20
2023-03-28T04:04:03.123Z,1.45
2023-03-28T04:06:40.715Z,1.13
2023-03-28T04:09:08.869Z,1.27
2023-03-28T04:11:55.895Z,1.48
2023-03-28T04:14:22.610Z,1.48
2023-03-28T04:16:50.776Z,1.23
2023-03-28T04:19:18.297Z,1.42
2023-03-28T04:21:48.061Z,1.23
2023-03-28T04:24:16.108Z,1.70
2023-03-28T04:26:50.265Z,1.17
2023-03-28T04:29:19.072Z,1.20
2023-03-28T04:32:06.585Z,1.40
2023-03-28T04:35:03.310Z,1.08
2023-03-28T04:37:29.962Z,1.17
2023-03-28T04:40:01.634Z,1.50
2023-03-28T04:42:49.464Z,1.42
2023-03-28T04:45:19.618Z,1.70
2023-03-28T04:47:48.103Z,1.60
2023-03-28T04:50:21.376Z,1.63
2023-03-28T04:52:47.887Z,1.42
2023-03-28T04:55:16.314Z,1.42
2023-03-28T04:57:43.729Z,1.60
2023-03-28T05:00:16.936Z,1.55
2023-03-28T05:03:27.895Z,1.77
2023-03-28T05:06:01.900Z,2.13
2023-03-28T05:08:28.436Z,1.52
2023-03-28T05:10:55.669Z,1.83
2023-03-28T05:13:22.864Z,1.63
2023-03-28T05:16:01.330Z,1.58
2023-03-28T05:18:47.485Z,1.60
2023-03-28T05:21:14.755Z,1.70
2023-03-28T05:23:41.257Z,1.73
2023-03-28T05:26:16.762Z,1.98
2023-03-28T05:28:43.842Z,1.95
2023-03-28T05:31:11.328Z,1.90
2023-03-28T05:33:37.774Z,2.33
2023-03-28T05:36:05.195Z,1.95
2023-03-28T05:38:33.646Z,2.13
2023-03-28T05:41:06.477Z,2.17
2023-03-28T05:43:33.748Z,2.17
2023-03-28T05:46:00.508Z,2.33
2023-03-28T05:48:33.738Z,2.20
2023-03-28T05:51:00.803Z,2.40
2023-03-28T05:53:27.461Z,2.17
2023-03-28T05:55:53.955Z,2.03
2023-03-28T05:58:20.509Z,1.98
2023-03-28T06:00:47.056Z,2.38
2023-03-28T06:03:16.721Z,2.50
2023-03-28T06:05:45.637Z,2.20
2023-03-28T06:08:23.903Z,2.35
2023-03-28T06:10:50.615Z,2.22
2023-03-28T06:13:21.397Z,2.35
2023-03-28T06:15:48.198Z,2.35
2023-03-28T06:18:16.159Z,2.90
2023-03-28T06:23:12.162Z,2.72
2023-03-28T06:25:38.648Z,2.67
2023-03-28T06:28:05.671Z,2.33
2023-03-28T06:30:35.998Z,2.58
2023-03-28T06:33:02.613Z,2.55
2023-03-28T06:35:30.431Z,2.70
2023-03-28T06:37:56.984Z,2.65
2023-03-28T06:40:26.574Z,3.00
2023-03-28T06:42:53.373Z,3.22
2023-03-28T06:45:28.970Z,2.65
2023-03-28T06:48:14.573Z,3.05
2023-03-28T06:50:59.723Z,2.70
2023-03-28T06:53:27.271Z,2.58
2023-03-28T06:55:54.433Z,3.00
2023-03-28T06:58:22.558Z,3.22
2023-03-28T07:00:54.940Z,2.80
2023-03-28T07:03:40.370Z,2.85
2023-03-28T07:06:09.438Z,3.08
2023-03-28T07:08:37.155Z,2.90
2023-03-28T07:11:04.344Z,2.67
2023-03-28T07:13:31.498Z,2.83
2023-03-28T07:16:11.692Z,2.78
2023-03-28T07:18:38.761Z,2.38
2023-03-28T07:21:10.648Z,2.80
2023-03-28T07:23:39.275Z,2.75
2023-03-28T07:26:07.448Z,2.38
2023-03-28T07:28:34.644Z,3.05
2023-03-28T07:31:04.550Z,2.75
2023-03-28T07:33:40.077Z,2.75
2023-03-28T07:36:18.422Z,2.03
2023-03-28T07:38:49.574Z,2.10
2023-03-28T07:41:17.799Z,2.42
2023-03-28T07:43:44.700Z,2.47
2023-03-28T07:46:14.405Z,2.85
2023-03-28T07:48:41.480Z,2.25
2023-03-28T07:51:09.697Z,2.10
2023-03-28T07:53:39.932Z,2.08
2023-03-28T07:56:11.660Z,2.53
2023-03-28T07:58:57.574Z,2.28
2023-03-28T08:01:24.986Z,2.17
2023-03-28T08:03:56.795Z,2.03
2023-03-28T08:06:34.146Z,2.20
2023-03-28T08:09:01.916Z,2.05
2023-03-28T08:11:35.896Z,2.20
2023-03-28T08:14:03.949Z,1.85
2023-03-28T08:16:31.534Z,1.95
2023-03-28T08:19:09.926Z,1.70
2023-03-28T08:21:53.602Z,1.83
2023-03-28T08:24:33.027Z,1.75
2023-03-28T08:27:09.864Z,1.63
2023-03-28T08:29:36.386Z,1.60
2023-03-28T08:32:05.232Z,1.80
2023-03-28T08:37:01.188Z,1.50
2023-03-28T08:39:29.210Z,1.52
2023-03-28T08:42:21.913Z,1.80
2023-03-28T08:45:22.898Z,1.52
2023-03-28T08:48:02.416Z,2.10
2023-03-28T08:50:33.844Z,1.90
2023-03-28T08:53:02.453Z,1.60
2023-03-28T08:55:42.714Z,1.55
2023-03-28T08:58:21.067Z,1.30
2023-03-28T09:00:50.069Z,1.95
2023-03-28T09:03:20.173Z,1.80
2023-03-28T09:06:19.078Z,1.75
2023-03-28T09:08:48.808Z,1.90
2023-03-28T09:11:15.777Z,1.73
2023-03-28T09:14:20.281Z,2.03
2023-03-28T09:16:57.914Z,1.80
2023-03-28T09:19:47.188Z,1.75
2023-03-28T09:22:46.690Z,1.65
2023-03-28T09:25:24.499Z,1.63
2023-03-28T09:28:16.930Z,2.10
2023-03-28T09:30:48.640Z,2.10
2023-03-28T09:33:21.167Z,1.63
2023-03-28T09:35:50.441Z,1.35
2023-03-28T09:38:24.796Z,1.58
2023-03-28T09:40:56.052Z,1.65
2023-03-28T09:43:35.115Z,1.67
2023-03-28T09:46:41.032Z,1.80
2023-03-28T09:49:33.729Z,1.95
2023-03-28T09:52:16.228Z,1.90
2023-03-28T09:54:43.375Z,2.05
2023-03-28T09:57:10.284Z,2.20
2023-03-28T09:59:58.630Z,1.92
2023-03-28T10:02:32.711Z,1.70
2023-03-28T10:05:31.638Z,1.40
2023-03-28T10:08:19.739Z,2.00
2023-03-28T10:11:12.291Z,1.80
2023-03-28T10:13:57.547Z,1.80
2023-03-28T10:16:31.531Z,1.30
2023-03-28T10:19:33.357Z,1.63
2023-03-28T10:22:20.742Z,1.55
2023-03-28T10:24:49.709Z,2.03
2023-03-28T10:27:23.916Z,1.70
2023-03-28T10:29:56.362Z,1.65
2023-03-28T10:32:31.356Z,1.80
2023-03-28T10:35:22.038Z,1.40
2023-03-28T10:37:56.882Z,1.20
2023-03-28T10:40:31.194Z,1.35
2023-03-28T10:43:01.047Z,1.80
2023-03-28T10:46:19.297Z,1.20
2023-03-28T10:49:03.874Z,1.40
2023-03-28T10:51:32.592Z,1.20
2023-03-28T10:54:14.370Z,1.45
2023-03-28T10:56:54.748Z,0.88
2023-03-28T11:00:10.715Z,0.82
2023-03-28T11:03:09.947Z,0.65
2023-03-28T11:06:07.969Z,0.70
2023-03-28T11:08:45.855Z,1.20
2023-03-28T11:11:39.207Z,1.15
2023-03-28T11:14:24.322Z,1.05
2023-03-28T11:17:12.070Z,0.85
2023-03-28T11:20:24.655Z,0.95
2023-03-28T11:23:28.995Z,1.00
2023-03-28T11:26:34.182Z,1.38
2023-03-28T11:29:43.774Z,1.30
2023-03-28T11:32:30.913Z,1.00
2023-03-28T11:35:14.227Z,1.10
2023-03-28T11:37:54.135Z,1.00
2023-03-28T11:40:27.552Z,1.48
2023-03-28T11:43:10.806Z,1.50
2023-03-28T11:45:52.290Z,1.33
2023-03-28T11:48:30.994Z,1.40
2023-03-28T11:51:09.232Z,1.42
2023-03-28T11:53:56.271Z,2.13
2023-03-28T11:56:36.173Z,1.70
2023-03-28T11:59:34.782Z,1.50
2023-03-28T12:02:14.427Z,1.60
2023-03-28T12:04:57.250Z,1.90
2023-03-28T12:07:49.274Z,1.67
2023-03-28T12:10:36.453Z,1.42
2023-03-28T12:13:34.773Z,1.60
2023-03-28T12:16:15.003Z,1.50
2023-03-28T12:18:57.506Z,1.20
2023-03-28T12:21:52.468Z,1.15
2023-03-28T12:24:47.255Z,1.30
2023-03-28T12:27:50.851Z,1.45
2023-03-28T12:30:36.392Z,2.35
2023-03-28T12:33:16.988Z,1.30
2023-03-28T12:36:24.250Z,1.10
2023-03-28T12:38:55.991Z,1.50
2023-03-28T12:41:36.247Z,1.10
2023-03-28T12:44:12.706Z,1.35
2023-03-28T12:46:49.364Z,1.20
2023-03-28T12:49:45.526Z,1.30
2023-03-28T12:52:24.226Z,1.20
2023-03-28T12:55:04.847Z,0.95
2023-03-28T12:57:46.770Z,1.35
2023-03-28T13:00:43.177Z,1.33
2023-03-28T13:03:46.777Z,1.30
2023-03-28T13:06:29.576Z,1.20
2023-03-28T13:09:08.266Z,1.25
2023-03-28T13:12:01.265Z,1.30
2023-03-28T13:14:35.782Z,1.30
2023-03-28T13:17:24.063Z,1.48
2023-03-28T13:20:28.856Z,1.60
2023-03-28T13:23:04.623Z,1.70
2023-03-28T13:25:33.360Z,1.48
2023-03-28T13:28:22.536Z,1.80
2023-03-28T13:31:06.576Z,1.50
2023-03-28T13:33:37.991Z,1.50
2023-03-28T13:36:04.645Z,1.38
2023-03-28T13:38:33.055Z,1.45
2023-03-28T13:41:00.960Z,1.55
2023-03-28T13:43:45.289Z,1.60
2023-03-28T13:46:24.939Z,1.50
2023-03-28T13:49:14.766Z,1.45
2023-03-28T13:51:54.461Z,1.85
2023-03-28T13:54:21.354Z,1.70
2023-03-28T13:56:50.659Z,1.90
2023-03-28T13:59:21.722Z,1.90
2023-03-28T14:01:54.596Z,2.03
2023-03-28T14:04:25.477Z,1.80
2023-03-28T14:06:54.030Z,1.80
2023-03-28T14:09:32.775Z,1.63
2023-03-28T14:12:06.309Z,2.15
2023-03-28T14:14:42.642Z,1.70
2023-03-28T14:17:18.193Z,1.42
2023-03-28T14:19:51.973Z,1.77
2023-03-28T14:22:23.353Z,1.98
2023-03-28T14:24:57.498Z,1.52
2023-03-28T14:27:42.455Z,1.70
2023-03-28T14:30:18.876Z,1.88
2023-03-28T14:33:01.758Z,1.83
2023-03-28T14:35:33.161Z,1.77
2023-03-28T14:38:05.482Z,1.50
2023-03-28T14:40:36.486Z,1.98
2023-03-28T14:43:18.537Z,1.75
2023-03-28T14:45:53.928Z,1.67
2023-03-28T14:48:24.854Z,1.75
2023-03-28T14:50:57.315Z,1.58
2023-03-28T14:53:27.135Z,1.50
2023-03-28T14:55:58.758Z,1.80
2023-03-28T14:58:27.483Z,1.77
2023-03-28T15:00:58.783Z,2.25
2023-03-28T15:03:33.182Z,1.60
2023-03-28T15:06:00.658Z,1.67
2023-03-28T15:08:28.261Z,1.60
2023-03-28T15:10:55.596Z,2.03
2023-03-28T15:13:31.451Z,1.77
2023-03-28T15:15:58.448Z,1.60
2023-03-28T15:18:38.438Z,2.00
2023-03-28T15:21:07.530Z,1.58
2023-03-28T15:23:59.517Z,1.70
2023-03-28T15:26:33.932Z,1.98
2023-03-28T15:29:01.162Z,1.77
2023-03-28T15:31:28.591Z,1.98
2023-03-28T15:33:55.615Z,2.10
2023-03-28T15:36:31.024Z,1.85
2023-03-28T15:39:10.541Z,1.77
2023-03-28T15:41:39.779Z,1.65
2023-03-28T15:44:27.465Z,1.48
2023-03-28T15:46:58.105Z,1.70
2023-03-28T15:49:27.802Z,1.88
2023-03-28T15:52:02.491Z,1.55
2023-03-28T15:54:31.811Z,1.70
2023-03-28T15:57:01.969Z,1.70
2023-03-28T15:59:36.332Z,2.20
2023-03-28T16:02:24.776Z,1.67
2023-03-28T16:05:15.339Z,1.88
2023-03-28T16:07:47.964Z,2.10
2023-03-28T16:10:17.133Z,1.65
2023-03-28T16:13:04.007Z,1.55
2023-03-28T16:15:53.717Z,1.63
2023-03-28T16:18:40.596Z,1.80
2023-03-28T16:21:10.164Z,2.03
2023-03-28T16:23:36.715Z,1.48
2023-03-28T16:26:04.942Z,1.80
2023-03-28T16:28:31.550Z,1.63
2023-03-28T16:30:58.320Z,1.92
2023-03-28T16:33:27.727Z,1.60
2023-03-28T16:35:54.317Z,1.95
2023-03-28T16:38:22.362Z,1.90
2023-03-28T16:40:48.958Z,2.03
2023-03-28T16:43:16.462Z,1.70
2023-03-28T16:45:48.119Z,1.60
2023-03-28T16:48:15.005Z,1.92
2023-03-28T16:50:49.969Z,1.95
2023-03-28T16:55:43.039Z,1.90
2023-03-28T16:58:09.926Z,1.88
2023-03-28T17:00:42.187Z,2.22
2023-03-28T17:03:10.119Z,2.28
2023-03-28T17:05:37.380Z,2.10
2023-03-28T17:08:04.129Z,2.33
2023-03-28T17:10:30.782Z,2.30
2023-03-28T17:12:57.784Z,2.30
2023-03-28T17:15:24.483Z,2.78
2023-03-28T17:17:50.918Z,2.45
2023-03-28T17:20:17.693Z,2.45
2023-03-28T17:22:44.199Z,2.47
2023-03-28T17:25:11.051Z,2.50
2023-03-28T17:27:37.465Z,2.28
2023-03-28T17:30:04.307Z,2.80
2023-03-28T17:32:31.110Z,2.92
2023-03-28T17:34:57.856Z,3.17
2023-03-28T17:37:24.748Z,3.40
2023-03-28T17:39:52.465Z,2.40
2023-03-28T17:42:19.000Z,2.60
2023-03-28T17:44:45.535Z,2.53
2023-03-28T17:47:12.467Z,2.90
2023-03-28T17:49:38.911Z,2.75
2023-03-28T17:52:06.146Z,2.40
2023-03-28T17:54:32.677Z,2.50
2023-03-28T17:56:59.359Z,2.40
2023-03-28T17:59:26.263Z,2.10
2023-03-28T18:01:52.856Z,2.90
2023-03-28T18:04:19.571Z,2.20
2023-03-28T18:07:15.924Z,2.65
2023-03-28T18:09:43.415Z,2.78
2023-03-28T18:12:09.955Z,2.67
2023-03-28T18:14:37.971Z,2.22
2023-03-28T18:17:05.423Z,2.40
2023-03-28T18:19:32.306Z,2.55
2023-03-28T18:21:58.893Z,2.45
2023-03-28T18:24:26.631Z,2.50
2023-03-28T18:26:53.268Z,2.53
2023-03-28T18:29:19.829Z,2.50
2023-03-28T18:31:46.601Z,2.53
2023-03-28T18:34:13.122Z,2.45
2023-03-28T18:36:43.781Z,2.10
2023-03-28T18:39:10.748Z,2.40
2023-03-28T18:41:38.036Z,2.88
2023-03-28T18:44:05.118Z,2.75
2023-03-28T18:46:31.639Z,2.70
2023-03-28T18:48:59.676Z,2.42
2023-03-28T18:51:27.542Z,2.72
2023-03-28T18:53:54.604Z,2.83
2023-03-28T18:56:21.906Z,2.70
2023-03-28T18:58:50.284Z,2.63
2023-03-28T19:01:17.279Z,2.80
2023-03-28T19:03:44.823Z,4.97
2023-03-28T19:06:14.834Z,3.47
2023-03-28T19:08:41.398Z,2.45
2023-03-28T19:11:11.818Z,2.28
2023-03-28T19:13:38.476Z,2.42
2023-03-28T19:16:11.420Z,2.35
2023-03-28T19:18:40.412Z,1.95
2023-03-28T19:21:08.488Z,2.22
2023-03-28T19:23:36.869Z,2.47
2023-03-28T19:26:05.672Z,2.65
2023-03-28T19:28:32.560Z,2.15
2023-03-28T19:31:01.338Z,2.78
2023-03-28T19:33:29.044Z,2.47
2023-03-28T19:35:56.169Z,2.67
2023-03-28T19:38:24.433Z,2.38
2023-03-28T19:41:00.377Z,2.25
2023-03-28T19:43:28.786Z,2.90
2023-03-28T19:46:02.121Z,2.75
2023-03-28T19:48:28.818Z,2.65
2023-03-28T19:50:55.370Z,2.75
2023-03-28T19:53:21.878Z,2.58
2023-03-28T19:55:53.377Z,3.05
2023-03-28T19:58:20.009Z,2.83
2023-03-28T20:00:48.033Z,2.40
2023-03-28T20:03:15.584Z,2.65
2023-03-28T20:05:48.331Z,3.00
2023-03-28T20:08:16.092Z,2.65
2023-03-28T20:10:43.821Z,2.50
2023-03-28T20:13:10.830Z,2.97
2023-03-28T20:15:41.951Z,2.47
2023-03-28T20:18:16.694Z,2.85
2023-03-28T20:20:43.254Z,2.90
2023-03-28T20:23:11.536Z,2.50
2023-03-28T20:25:38.014Z,2.72
2023-03-28T20:28:04.534Z,2.85
2023-03-28T20:30:31.983Z,2.92
2023-03-28T20:32:58.838Z,2.80
2023-03-28T20:35:27.251Z,3.25
2023-03-28T20:37:54.532Z,2.47
2023-03-28T20:40:25.113Z,2.30
2023-03-28T20:42:54.979Z,2.65
2023-03-28T20:45:24.902Z,2.90
2023-03-28T20:47:56.254Z,2.97
2023-03-28T20:50:25.843Z,2.80
2023-03-28T20:52:52.929Z,3.25
2023-03-28T20:55:19.830Z,3.10
2023-03-28T20:57:46.294Z,2.53
2023-03-28T21:00:14.968Z,3.13
2023-03-28T21:02:41.730Z,2.50
2023-03-28T21:05:08.670Z,2.45
2023-03-28T21:07:36.021Z,2.22
2023-03-28T21:10:03.252Z,2.55
2023-03-28T21:12:29.861Z,2.30
2023-03-28T21:14:56.422Z,2.15
2023-03-28T21:17:25.762Z,2.05
2023-03-28T21:19:53.053Z,2.00
2023-03-28T21:22:20.827Z,2.42
2023-03-28T21:24:48.644Z,1.90
2023-03-28T21:27:17.204Z,2.30
2023-03-28T21:29:44.414Z,2.05
2023-03-28T21:32:11.414Z,2.45
2023-03-28T21:34:38.901Z,2.05
2023-03-28T21:37:05.905Z,1.80
2023-03-28T21:39:32.506Z,1.75
2023-03-28T21:41:59.964Z,1.92
2023-03-28T21:44:26.392Z,1.80
2023-03-28T21:46:52.895Z,1.27
2023-03-28T21:49:19.421Z,1.50
2023-03-28T21:51:46.001Z,1.63
2023-03-28T21:54:12.810Z,1.65
2023-03-28T21:56:39.393Z,1.40
2023-03-28T21:59:07.164Z,1.70
2023-03-28T22:01:36.375Z,1.90
2023-03-28T22:04:02.953Z,1.42
2023-03-28T22:06:29.399Z,1.50
2023-03-28T22:08:56.877Z,1.67
2023-03-28T22:11:28.842Z,1.33
2023-03-28T22:14:02.901Z,1.70
2023-03-28T22:16:32.325Z,1.52
2023-03-28T22:19:00.658Z,1.60
2023-03-28T22:21:30.136Z,1.58
2023-03-28T22:23:57.693Z,1.52
2023-03-28T22:26:28.173Z,1.33
2023-03-28T22:28:55.124Z,1.50
2023-03-28T22:31:22.207Z,1.90
2023-03-28T22:33:48.731Z,1.13
2023-03-28T22:36:15.255Z,1.52
2023-03-28T22:38:41.861Z,1.40
2023-03-28T22:41:08.494Z,1.50
2023-03-28T22:43:35.407Z,1.60
2023-03-28T22:46:02.157Z,1.30
2023-03-28T22:48:31.612Z,1.45
2023-03-28T22:51:02.137Z,1.40
2023-03-28T22:53:29.094Z,1.67
2023-03-28T22:55:57.628Z,1.50
2023-03-28T22:58:24.251Z,1.30
2023-03-28T23:00:50.931Z,1.50
2023-03-28T23:03:17.919Z,1.50
2023-03-28T23:05:44.725Z,1.40
2023-03-28T23:08:11.596Z,1.40
2023-03-28T23:10:38.236Z,1.20
2023-03-28T23:13:04.767Z,1.45
2023-03-28T23:15:31.333Z,1.52
2023-03-28T23:17:58.600Z,1.30
2023-03-28T23:20:26.471Z,1.33
2023-03-28T23:22:53.610Z,1.38
2023-03-28T23:25:22.014Z,1.30
2023-03-28T23:27:48.672Z,1.30
2023-03-28T23:30:16.080Z,1.23
2023-03-28T23:32:42.914Z,1.70
2023-03-28T23:35:10.651Z,1.55
2023-03-28T23:37:38.158Z,1.38
2023-03-28T23:40:13.872Z,1.48
2023-03-28T23:42:43.513Z,1.48
2023-03-28T23:45:11.618Z,1.38
2023-03-28T23:47:38.172Z,1.55
2023-03-28T23:50:06.562Z,1.38
2023-03-28T23:52:33.114Z,1.40
2023-03-28T23:54:59.671Z,1.30
2023-03-28T23:57:28.452Z,1.40
2023-03-28T23:59:57.718Z,1.45
